createdAt,value
2019-01-24T00:01:36.090Z,20.17
2019-01-24T00:04:05.917Z,20.60
2019-01-24T00:06:35.420Z,19.30
2019-01-24T00:09:08.358Z,20.27
2019-01-24T00:11:37.853Z,23.10
2019-01-24T00:14:07.336Z,20.88
2019-01-24T00:16:36.836Z,19.90
2019-01-24T00:19:06.554Z,22.20
2019-01-24T00:21:36.055Z,20.27
2019-01-24T00:24:05.561Z,19.50
2019-01-24T00:26:35.180Z,20.90
2019-01-24T00:29:04.786Z,20.70
2019-01-24T00:31:34.270Z,20.20
2019-01-24T00:34:03.973Z,21.05
2019-01-24T00:36:33.627Z,21.05
2019-01-24T00:39:03.704Z,20.72
2019-01-24T00:41:33.188Z,21.65
2019-01-24T00:44:02.832Z,20.80
2019-01-24T00:46:33.361Z,21.05
2019-01-24T00:49:02.863Z,22.37
2019-01-24T00:51:32.362Z,18.50
2019-01-24T00:54:02.064Z,21.57
2019-01-24T00:56:31.737Z,19.35
2019-01-24T00:59:01.199Z,20.23
2019-01-24T01:01:30.691Z,20.55
2019-01-24T01:04:00.164Z,20.97
2019-01-24T01:06:29.714Z,18.85
2019-01-24T01:08:59.422Z,21.57
2019-01-24T01:11:28.885Z,19.55
2019-01-24T01:13:58.435Z,20.30
2019-01-24T01:16:28.009Z,22.07
2019-01-24T01:18:57.499Z,20.70
2019-01-24T01:21:27.000Z,21.85
2019-01-24T01:23:56.589Z,21.25
2019-01-24T01:26:26.090Z,21.85
2019-01-24T01:28:55.583Z,24.40
2019-01-24T01:31:25.175Z,22.17
2019-01-24T01:33:54.702Z,22.30
2019-01-24T01:36:24.224Z,23.70
2019-01-24T01:38:53.774Z,22.95
2019-01-24T01:41:23.303Z,24.57
2019-01-24T01:43:52.754Z,21.20
2019-01-24T01:46:22.408Z,21.70
2019-01-24T01:48:51.864Z,22.42
2019-01-24T01:51:21.335Z,23.38
2019-01-24T01:53:50.858Z,22.55
2019-01-24T01:56:20.349Z,22.65
2019-01-24T01:58:49.881Z,21.23
2019-01-24T02:01:19.360Z,21.37
2019-01-24T02:03:48.881Z,24.27
2019-01-24T02:06:18.361Z,25.43
2019-01-24T02:08:47.836Z,25.75
2019-01-24T02:11:17.395Z,23.85
2019-01-24T02:13:46.857Z,24.35
2019-01-24T02:16:16.428Z,22.82
2019-01-24T02:18:45.901Z,20.72
2019-01-24T02:21:15.592Z,25.10
2019-01-24T02:23:45.088Z,24.70
2019-01-24T02:26:14.561Z,24.60
2019-01-24T02:28:44.108Z,22.73
2019-01-24T02:31:13.585Z,24.25
2019-01-24T02:33:43.081Z,23.98
2019-01-24T02:36:12.546Z,25.10
2019-01-24T02:38:42.064Z,25.10
2019-01-24T02:41:11.539Z,26.27
2019-01-24T02:43:41.068Z,24.25
2019-01-24T02:46:10.573Z,25.10
2019-01-24T02:48:40.042Z,23.60
2019-01-24T02:51:09.543Z,24.50
2019-01-24T02:53:39.010Z,23.25
2019-01-24T02:56:08.651Z,25.72
2019-01-24T02:58:38.124Z,23.55
2019-01-24T03:01:07.601Z,26.65
2019-01-24T03:03:37.128Z,27.35
2019-01-24T03:06:06.596Z,27.60
2019-01-24T03:08:36.110Z,26.27
2019-01-24T03:11:05.862Z,23.22
2019-01-24T03:13:35.349Z,24.50
2019-01-24T03:16:05.030Z,24.07
2019-01-24T03:18:34.732Z,25.65
2019-01-24T03:21:04.413Z,23.40
2019-01-24T03:23:33.937Z,24.15
2019-01-24T03:26:03.414Z,26.37
2019-01-24T03:28:32.916Z,24.27
2019-01-24T03:31:02.422Z,26.27
2019-01-24T03:33:31.885Z,24.77
2019-01-24T03:36:01.685Z,25.55
2019-01-24T03:38:31.167Z,27.02
2019-01-24T03:41:00.642Z,27.20
2019-01-24T03:43:30.131Z,24.63
2019-01-24T03:45:59.643Z,25.85
2019-01-24T03:48:29.343Z,27.17
2019-01-24T03:50:58.823Z,24.55
2019-01-24T03:53:28.329Z,26.50
2019-01-24T03:55:57.919Z,27.42
2019-01-24T03:58:27.602Z,26.97
2019-01-24T04:00:57.333Z,27.13
2019-01-24T04:03:26.834Z,24.00
2019-01-24T04:05:56.324Z,26.62
2019-01-24T04:08:25.905Z,27.20
2019-01-24T04:10:55.754Z,24.70
2019-01-24T04:13:25.296Z,25.70
2019-01-24T04:15:55.066Z,25.62
2019-01-24T04:18:24.607Z,24.75
2019-01-24T04:20:54.099Z,27.07
2019-01-24T04:23:24.032Z,25.82
2019-01-24T04:25:53.547Z,27.10
2019-01-24T04:28:23.018Z,25.68
2019-01-24T04:30:52.541Z,24.70
2019-01-24T04:33:22.021Z,27.32
2019-01-24T04:35:51.666Z,25.80
2019-01-24T04:38:21.151Z,27.40
2019-01-24T04:40:50.674Z,25.88
2019-01-24T04:43:20.182Z,28.83
2019-01-24T04:45:49.661Z,28.52
2019-01-24T04:48:19.251Z,27.93
2019-01-24T04:50:48.764Z,26.20
2019-01-24T04:53:18.250Z,28.00
2019-01-24T04:55:47.787Z,27.55
2019-01-24T04:58:17.261Z,27.35
2019-01-24T05:00:46.764Z,26.70
2019-01-24T05:03:16.299Z,27.75
2019-01-24T05:05:45.900Z,27.40
2019-01-24T05:08:15.396Z,26.45
2019-01-24T05:10:44.981Z,26.42
2019-01-24T05:13:14.518Z,27.40
2019-01-24T05:15:43.970Z,25.85
2019-01-24T05:18:13.666Z,27.13
2019-01-24T05:20:43.261Z,28.38
2019-01-24T05:23:12.740Z,27.07
2019-01-24T05:25:42.262Z,27.77
2019-01-24T05:28:11.764Z,24.47
2019-01-24T05:30:41.314Z,27.80
2019-01-24T05:33:10.950Z,28.95
2019-01-24T05:35:40.548Z,28.00
2019-01-24T05:38:10.243Z,26.77
2019-01-24T05:40:39.933Z,27.37
2019-01-24T05:43:09.426Z,27.82
2019-01-24T05:45:38.944Z,25.43
2019-01-24T05:48:08.485Z,27.40
2019-01-24T05:50:37.953Z,29.00
2019-01-24T05:53:07.459Z,29.00
2019-01-24T05:55:36.990Z,28.87
2019-01-24T05:58:06.451Z,28.35
2019-01-24T06:00:38.925Z,29.15
2019-01-24T06:03:08.423Z,28.52
2019-01-24T06:05:41.817Z,26.62
2019-01-24T06:08:09.730Z,27.65
2019-01-24T06:10:39.295Z,28.47
2019-01-24T06:13:08.786Z,28.10
2019-01-24T06:15:38.317Z,27.55
2019-01-24T06:18:07.829Z,28.40
2019-01-24T06:20:37.313Z,28.73
2019-01-24T06:23:06.821Z,27.95
2019-01-24T06:25:36.294Z,29.25
2019-01-24T06:28:06.398Z,27.50
2019-01-24T06:30:35.906Z,28.75
2019-01-24T06:33:05.420Z,27.80
2019-01-24T06:35:34.944Z,26.30
2019-01-24T06:38:04.634Z,26.90
2019-01-24T06:40:34.238Z,26.48
2019-01-24T06:43:03.914Z,27.37
2019-01-24T06:45:33.445Z,29.10
2019-01-24T06:48:03.097Z,26.90
2019-01-24T06:50:34.240Z,27.75
2019-01-24T06:53:03.739Z,26.70
2019-01-24T06:55:33.207Z,29.95
2019-01-24T06:58:03.083Z,26.48
2019-01-24T07:00:32.636Z,28.42
2019-01-24T07:03:02.118Z,29.10
2019-01-24T07:05:31.607Z,27.65
2019-01-24T07:08:01.069Z,29.70
2019-01-24T07:10:30.749Z,26.12
2019-01-24T07:13:00.374Z,28.52
2019-01-24T07:15:29.932Z,28.55
2019-01-24T07:17:59.431Z,26.02
2019-01-24T07:20:28.937Z,26.15
2019-01-24T07:22:58.449Z,27.30
2019-01-24T07:25:29.080Z,27.05
2019-01-24T07:27:58.583Z,27.50
2019-01-24T07:30:28.115Z,26.50
2019-01-24T07:32:59.719Z,26.10
2019-01-24T07:35:29.367Z,26.30
2019-01-24T07:37:58.872Z,27.73
2019-01-24T07:40:28.468Z,26.73
2019-01-24T07:42:57.946Z,26.15
2019-01-24T07:45:32.852Z,25.65
2019-01-24T07:48:02.387Z,24.92
2019-01-24T07:50:32.132Z,26.23
2019-01-24T07:53:01.658Z,26.62
2019-01-24T07:55:31.184Z,27.82
2019-01-24T07:58:00.888Z,29.37
2019-01-24T08:00:30.785Z,25.37
2019-01-24T08:03:00.502Z,26.60
2019-01-24T08:05:30.212Z,30.37
2019-01-24T08:08:00.000Z,28.35
2019-01-24T08:10:29.562Z,26.20
2019-01-24T08:12:59.045Z,27.65
2019-01-24T08:15:29.228Z,28.62
2019-01-24T08:17:58.967Z,28.80
2019-01-24T08:20:29.077Z,27.25
2019-01-24T08:22:58.590Z,27.00
2019-01-24T08:25:28.091Z,27.77
2019-01-24T08:27:57.555Z,28.05
2019-01-24T08:30:32.566Z,27.42
2019-01-24T08:33:02.038Z,29.07
2019-01-24T08:35:31.740Z,26.20
2019-01-24T08:38:01.264Z,27.17
2019-01-24T08:40:30.732Z,28.47
2019-01-24T08:43:00.295Z,28.77
2019-01-24T08:45:29.765Z,26.95
2019-01-24T08:47:59.304Z,29.00
2019-01-24T08:50:28.763Z,26.82
2019-01-24T08:52:58.647Z,28.80
2019-01-24T08:55:33.935Z,30.70
2019-01-24T08:58:03.720Z,28.07
2019-01-24T09:00:33.252Z,27.13
2019-01-24T09:03:02.766Z,28.00
2019-01-24T09:05:32.568Z,25.52
2019-01-24T09:08:02.044Z,26.93
2019-01-24T09:10:33.805Z,26.73
2019-01-24T09:13:03.653Z,26.25
2019-01-24T09:15:33.263Z,27.02
2019-01-24T09:18:02.779Z,26.52
2019-01-24T09:20:32.357Z,28.42
2019-01-24T09:23:01.978Z,28.20
2019-01-24T09:25:31.518Z,24.63
2019-01-24T09:28:01.107Z,26.55
2019-01-24T09:30:30.899Z,24.98
2019-01-24T09:33:00.483Z,25.12
2019-01-24T09:35:29.961Z,24.98
2019-01-24T09:37:59.651Z,24.40
2019-01-24T09:40:29.169Z,27.45
2019-01-24T09:42:58.698Z,24.50
2019-01-24T09:45:29.709Z,24.27
2019-01-24T09:48:01.011Z,23.73
2019-01-24T09:50:31.233Z,24.00
2019-01-24T09:53:00.745Z,25.48
2019-01-24T09:55:30.540Z,25.77
2019-01-24T09:58:00.075Z,27.32
2019-01-24T10:00:34.381Z,25.43
2019-01-24T10:03:04.085Z,24.25
2019-01-24T10:05:33.547Z,27.07
2019-01-24T10:08:03.036Z,26.30
2019-01-24T10:10:32.555Z,24.87
2019-01-24T10:13:02.141Z,24.12
2019-01-24T10:15:31.855Z,27.37
2019-01-24T10:18:01.345Z,24.37
2019-01-24T10:20:30.901Z,26.05
2019-01-24T10:23:00.418Z,23.30
2019-01-24T10:25:35.079Z,24.00
2019-01-24T10:28:04.689Z,23.70
2019-01-24T10:30:34.184Z,25.75
2019-01-24T10:33:04.132Z,28.35
2019-01-24T10:35:33.606Z,24.85
2019-01-24T10:38:03.123Z,25.97
2019-01-24T10:40:33.563Z,24.87
2019-01-24T10:43:03.053Z,24.75
2019-01-24T10:45:33.004Z,26.15
2019-01-24T10:48:02.518Z,25.20
2019-01-24T10:50:32.115Z,24.90
2019-01-24T10:53:01.633Z,23.60
2019-01-24T10:55:31.191Z,26.75
2019-01-24T10:58:02.867Z,23.98
2019-01-24T11:00:38.271Z,24.90
2019-01-24T11:03:10.530Z,24.35
2019-01-24T11:05:40.013Z,24.45
2019-01-24T11:08:09.507Z,26.37
2019-01-24T11:10:39.118Z,26.15
2019-01-24T11:13:08.610Z,24.63
2019-01-24T11:15:38.347Z,25.97
2019-01-24T11:18:08.936Z,27.32
2019-01-24T11:20:38.510Z,24.05
2019-01-24T11:23:08.050Z,26.50
2019-01-24T11:25:37.558Z,27.42
2019-01-24T11:28:07.242Z,29.45
2019-01-24T11:30:37.120Z,28.70
2019-01-24T11:33:07.759Z,28.90
2019-01-24T11:35:38.209Z,24.00
2019-01-24T11:38:08.213Z,26.00
2019-01-24T11:40:37.710Z,28.60
2019-01-24T11:43:07.915Z,23.00
2019-01-24T11:45:43.034Z,25.17
2019-01-24T11:48:12.537Z,26.75
2019-01-24T11:50:42.123Z,26.12
2019-01-24T11:53:11.743Z,27.75
2019-01-24T11:55:41.295Z,27.07
2019-01-24T11:58:10.757Z,25.23
2019-01-24T12:00:45.754Z,24.10
2019-01-24T12:03:15.215Z,26.50
2019-01-24T12:05:44.808Z,26.15
2019-01-24T12:08:14.301Z,25.50
2019-01-24T12:10:43.779Z,22.20
2019-01-24T12:13:13.289Z,23.10
2019-01-24T12:15:42.806Z,23.65
2019-01-24T12:18:12.314Z,25.75
2019-01-24T12:20:41.787Z,25.57
2019-01-24T12:23:11.307Z,26.75
2019-01-24T12:25:40.790Z,26.55
2019-01-24T12:28:10.318Z,27.45
2019-01-24T12:30:39.791Z,22.45
2019-01-24T12:33:09.290Z,25.32
2019-01-24T12:35:38.904Z,26.77
2019-01-24T12:38:08.589Z,25.32
2019-01-24T12:40:38.072Z,25.23
2019-01-24T12:43:07.533Z,28.95
2019-01-24T12:45:38.246Z,23.20
2019-01-24T12:48:08.286Z,23.60
2019-01-24T12:50:37.999Z,26.62
2019-01-24T12:53:08.385Z,24.57
2019-01-24T12:55:37.942Z,24.75
2019-01-24T12:58:07.436Z,26.25
2019-01-24T13:00:40.611Z,23.07
2019-01-24T13:03:10.323Z,25.08
2019-01-24T13:05:39.797Z,26.10
2019-01-24T13:08:09.738Z,23.57
2019-01-24T13:10:39.346Z,25.80
2019-01-24T13:13:09.040Z,24.02
2019-01-24T13:15:38.775Z,23.15
2019-01-24T13:18:08.546Z,26.30
2019-01-24T13:20:38.267Z,25.82
2019-01-24T13:23:08.120Z,26.00
2019-01-24T13:25:38.299Z,26.23
2019-01-24T13:28:08.145Z,24.10
2019-01-24T13:30:38.122Z,26.50
2019-01-24T13:33:08.468Z,24.23
2019-01-24T13:35:38.590Z,26.23
2019-01-24T13:38:08.753Z,26.00
2019-01-24T13:40:38.299Z,24.52
2019-01-24T13:43:08.687Z,25.60
2019-01-24T13:45:39.776Z,24.57
2019-01-24T13:48:09.572Z,25.32
2019-01-24T13:50:39.075Z,26.77
2019-01-24T13:53:09.139Z,25.50
2019-01-24T13:55:39.494Z,25.08
2019-01-24T13:58:09.684Z,25.85
2019-01-24T14:00:40.746Z,26.17
2019-01-24T14:03:44.452Z,22.77
2019-01-24T14:06:13.920Z,21.48
2019-01-24T14:08:43.528Z,24.98
2019-01-24T14:11:18.000Z,23.60
2019-01-24T14:13:44.290Z,25.20
2019-01-24T14:16:13.811Z,25.15
2019-01-24T14:18:43.272Z,26.17
2019-01-24T14:21:12.758Z,24.52
2019-01-24T14:23:42.255Z,24.35
2019-01-24T14:26:11.814Z,26.25
2019-01-24T14:28:41.291Z,27.40
2019-01-24T14:31:11.025Z,27.42
2019-01-24T14:33:40.482Z,23.40
2019-01-24T14:36:10.045Z,24.25
2019-01-24T14:38:39.822Z,25.20
2019-01-24T14:41:09.320Z,24.77
2019-01-24T14:43:38.827Z,22.02
2019-01-24T14:46:08.417Z,23.30
2019-01-24T14:48:37.960Z,23.85
2019-01-24T14:51:07.418Z,22.85
2019-01-24T14:53:37.065Z,24.45
2019-01-24T14:56:06.575Z,24.85
2019-01-24T14:58:36.075Z,23.00
2019-01-24T15:01:26.804Z,23.05
2019-01-24T15:03:57.324Z,22.58
2019-01-24T15:06:26.951Z,22.00
2019-01-24T15:08:56.711Z,24.37
2019-01-24T15:11:26.196Z,22.02
2019-01-24T15:13:55.775Z,21.17
2019-01-24T15:16:25.967Z,23.65
2019-01-24T15:18:55.514Z,21.60
2019-01-24T15:21:25.184Z,22.65
2019-01-24T15:23:54.711Z,22.40
2019-01-24T15:26:24.193Z,23.05
2019-01-24T15:28:53.697Z,23.02
2019-01-24T15:31:23.148Z,24.23
2019-01-24T15:33:52.788Z,23.05
2019-01-24T15:36:22.353Z,20.10
2019-01-24T15:38:51.831Z,20.17
2019-01-24T15:41:21.377Z,22.60
2019-01-24T15:43:50.860Z,20.60
2019-01-24T15:46:20.456Z,22.30
2019-01-24T15:48:49.933Z,22.80
2019-01-24T15:51:19.746Z,21.68
2019-01-24T15:53:49.346Z,20.15
2019-01-24T15:56:18.840Z,20.88
2019-01-24T15:58:48.351Z,23.62
2019-01-24T16:01:17.819Z,22.22
2019-01-24T16:03:47.335Z,19.95
2019-01-24T16:06:16.802Z,20.55
2019-01-24T16:08:46.396Z,18.50
2019-01-24T16:11:15.978Z,20.75
2019-01-24T16:13:45.607Z,21.55
2019-01-24T16:16:15.142Z,22.02
2019-01-24T16:18:44.680Z,21.07
2019-01-24T16:21:14.821Z,21.45
2019-01-24T16:23:44.693Z,19.23
2019-01-24T16:26:15.728Z,19.77
2019-01-24T16:28:44.148Z,21.10
2019-01-24T16:31:14.120Z,20.17
2019-01-24T16:33:43.709Z,20.57
2019-01-24T16:36:13.315Z,21.17
2019-01-24T16:38:43.130Z,23.07
2019-01-24T16:41:13.101Z,18.95
2019-01-24T16:43:43.183Z,19.48
2019-01-24T16:46:12.902Z,21.85
2019-01-24T16:48:42.832Z,22.37
2019-01-24T16:51:12.493Z,21.68
2019-01-24T16:53:42.225Z,23.07
2019-01-24T16:56:12.013Z,20.77
2019-01-24T16:58:41.628Z,20.40
2019-01-24T17:01:17.784Z,22.13
2019-01-24T17:03:47.409Z,21.85
2019-01-24T17:06:17.296Z,23.25
2019-01-24T17:08:47.734Z,24.52
2019-01-24T17:11:17.279Z,25.72
2019-01-24T17:13:47.003Z,24.50
2019-01-24T17:16:16.488Z,22.77
2019-01-24T17:18:45.964Z,25.88
2019-01-24T17:21:15.464Z,26.30
2019-01-24T17:23:45.078Z,24.67
2019-01-24T17:26:14.722Z,23.57
2019-01-24T17:28:44.290Z,27.13
2019-01-24T17:31:13.872Z,25.00
2019-01-24T17:33:43.531Z,28.30
2019-01-24T17:36:13.042Z,27.20
2019-01-24T17:38:42.511Z,27.15
2019-01-24T17:41:12.102Z,29.67
2019-01-24T17:43:41.705Z,29.10
2019-01-24T17:46:11.235Z,29.87
2019-01-24T17:48:40.922Z,29.87
2019-01-24T17:51:10.509Z,30.08
2019-01-24T17:53:43.219Z,28.98
2019-01-24T17:56:12.796Z,30.17
2019-01-24T17:58:42.368Z,29.63
2019-01-24T18:01:11.853Z,30.82
2019-01-24T18:03:42.606Z,30.40
2019-01-24T18:06:12.339Z,29.40
2019-01-24T18:08:41.988Z,31.33
2019-01-24T18:11:11.465Z,29.67
2019-01-24T18:13:40.969Z,30.62
2019-01-24T18:16:10.686Z,29.80
2019-01-24T18:18:40.201Z,30.05
2019-01-24T18:21:09.976Z,32.70
2019-01-24T18:23:39.586Z,34.00
2019-01-24T18:26:09.108Z,32.08
2019-01-24T18:28:38.787Z,33.60
2019-01-24T18:31:08.274Z,34.00
2019-01-24T18:33:37.985Z,30.65
2019-01-24T18:36:07.679Z,32.25
2019-01-24T18:38:38.617Z,32.95
2019-01-24T18:41:08.969Z,32.13
2019-01-24T18:43:39.237Z,32.80
2019-01-24T18:46:08.850Z,31.05
2019-01-24T18:48:38.323Z,31.25
2019-01-24T18:51:07.821Z,31.82
2019-01-24T18:53:37.335Z,32.70
2019-01-24T18:56:06.943Z,34.35
2019-01-24T18:58:36.459Z,32.10
2019-01-24T19:01:06.213Z,35.23
2019-01-24T19:03:35.720Z,32.50
2019-01-24T19:06:05.435Z,34.23
2019-01-24T19:08:34.940Z,35.17
2019-01-24T19:11:05.036Z,36.40
2019-01-24T19:13:34.812Z,33.05
2019-01-24T19:16:06.949Z,31.87
2019-01-24T19:18:36.987Z,33.08
2019-01-24T19:21:06.701Z,30.80
2019-01-24T19:23:36.178Z,32.20
2019-01-24T19:26:05.897Z,31.65
2019-01-24T19:28:35.634Z,33.13
2019-01-24T19:31:05.261Z,35.05
2019-01-24T19:33:34.853Z,32.25
2019-01-24T19:36:04.457Z,33.98
2019-01-24T19:38:33.958Z,29.82
2019-01-24T19:41:03.492Z,32.30
2019-01-24T19:43:33.324Z,34.58
2019-01-24T19:46:02.898Z,36.10
2019-01-24T19:48:32.418Z,31.93
2019-01-24T19:51:02.209Z,34.95
2019-01-24T19:53:31.692Z,32.38
2019-01-24T19:56:01.168Z,34.50
2019-01-24T19:58:30.696Z,36.25
2019-01-24T20:01:00.206Z,35.90
2019-01-24T20:03:29.988Z,37.50
2019-01-24T20:05:59.568Z,37.13
2019-01-24T20:08:29.506Z,37.85
2019-01-24T20:10:59.140Z,33.02
2019-01-24T20:13:29.195Z,32.70
2019-01-24T20:15:58.772Z,38.23
2019-01-24T20:18:28.338Z,34.92
2019-01-24T20:20:57.902Z,33.40
2019-01-24T20:23:27.402Z,33.60
2019-01-24T20:25:56.911Z,31.97
2019-01-24T20:28:26.409Z,33.85
2019-01-24T20:30:55.935Z,37.28
2019-01-24T20:33:25.761Z,33.92
2019-01-24T20:35:57.922Z,32.08
2019-01-24T20:38:27.423Z,35.28
2019-01-24T20:40:57.006Z,36.20
2019-01-24T20:43:26.505Z,35.70
2019-01-24T20:45:55.994Z,35.55
2019-01-24T20:48:25.514Z,32.05
2019-01-24T20:50:55.145Z,35.10
2019-01-24T20:53:24.955Z,32.45
2019-01-24T20:55:54.450Z,36.68
2019-01-24T20:58:23.926Z,32.67
2019-01-24T21:00:53.437Z,36.08
2019-01-24T21:03:22.929Z,34.33
2019-01-24T21:05:52.499Z,36.23
2019-01-24T21:08:22.005Z,37.90
2019-01-24T21:10:51.671Z,36.53
2019-01-24T21:13:21.144Z,33.00
2019-01-24T21:15:50.643Z,38.17
2019-01-24T21:18:20.170Z,36.63
2019-01-24T21:20:49.745Z,33.58
2019-01-24T21:23:19.354Z,37.17
2019-01-24T21:25:48.845Z,35.58
2019-01-24T21:28:18.342Z,35.80
2019-01-24T21:30:47.953Z,37.00
2019-01-24T21:33:17.525Z,35.83
2019-01-24T21:35:47.090Z,36.03
2019-01-24T21:38:16.694Z,36.00
2019-01-24T21:40:46.204Z,37.30
2019-01-24T21:43:15.703Z,36.90
2019-01-24T21:45:45.335Z,32.80
2019-01-24T21:48:14.824Z,36.48
2019-01-24T21:50:46.294Z,33.80
2019-01-24T21:53:15.869Z,35.65
2019-01-24T21:55:45.373Z,33.08
2019-01-24T21:58:14.946Z,36.80
2019-01-24T22:00:44.513Z,34.55
2019-01-24T22:03:14.011Z,33.42
2019-01-24T22:05:43.561Z,32.20
2019-01-24T22:08:13.072Z,31.20
2019-01-24T22:10:42.745Z,34.63
2019-01-24T22:13:12.232Z,30.82
2019-01-24T22:15:41.715Z,33.13
2019-01-24T22:18:11.230Z,34.08
2019-01-24T22:20:40.963Z,32.75
2019-01-24T22:23:10.489Z,33.55
2019-01-24T22:25:40.070Z,31.50
2019-01-24T22:28:09.576Z,32.30
2019-01-24T22:30:44.674Z,34.78
2019-01-24T22:33:14.210Z,34.33
2019-01-24T22:35:43.734Z,33.80
2019-01-24T22:38:13.213Z,35.05
2019-01-24T22:40:42.825Z,35.00
2019-01-24T22:43:12.314Z,36.77
2019-01-24T22:45:41.919Z,31.87
2019-01-24T22:48:11.530Z,33.55
2019-01-24T22:50:41.143Z,30.85
2019-01-24T22:53:10.792Z,31.73
2019-01-24T22:55:40.283Z,30.35
2019-01-24T22:58:09.793Z,30.08
2019-01-24T23:01:15.994Z,33.85
2019-01-24T23:04:09.578Z,32.95
2019-01-24T23:06:39.246Z,30.02
2019-01-24T23:09:11.360Z,34.20
2019-01-24T23:11:40.902Z,32.70
2019-01-24T23:14:10.381Z,29.27
2019-01-24T23:16:39.873Z,33.18
2019-01-24T23:19:09.422Z,31.82
2019-01-24T23:21:39.316Z,33.10
2019-01-24T23:24:08.813Z,31.25
2019-01-24T23:26:38.272Z,33.15
2019-01-24T23:29:07.880Z,33.45
2019-01-24T23:31:37.433Z,28.85
2019-01-24T23:34:07.078Z,32.23
2019-01-24T23:36:36.713Z,31.75
2019-01-24T23:39:09.740Z,33.53
2019-01-24T23:41:39.291Z,31.95
2019-01-24T23:44:08.768Z,29.63
2019-01-24T23:46:38.477Z,30.43
2019-01-24T23:49:07.981Z,29.05
2019-01-24T23:51:37.622Z,33.48
2019-01-24T23:54:07.111Z,32.35
2019-01-24T23:56:36.636Z,31.15
2019-01-24T23:59:06.121Z,33.95
